CFG41K EHAM-EDDM
Flight info
| Callsign | CFG41K |
|---|---|
| Flight time | 1h 6m |
| Altitude | 27000 |
| Route | EDUPO Z739 MISGO DCT DOJOH DCT DODEN DCT TABUM DCT BOMBI T104 ROKIL ROKIL1A |
| Aircraft | A320/M-SDE3FGHIRWY/LB1 |
Departure
| Time | 2026-04-30 21:39 |
|---|---|
| Airport | Amsterdam Airport Schiphol (EHAM) |
Arrival
| Time | 2026-04-30 22:46 |
|---|---|
| Airport | Munich Airport (EDDM) |
| Time | Latitude | Longitude | Altitude | Speed | Heading |
|---|---|---|---|---|---|
| 2026-04-30 21:04 | 52.31357 | 4.75595 | -1 ft | 0 kts | 86° |
| 2026-04-30 21:18 | 52.31353 | 4.75573 | -1 ft | 0 kts | 86° |
| 2026-04-30 21:31 | 52.31353 | 4.75571 | -1 ft | 1 kts | 86° |
| 2026-04-30 21:32 | 52.31349 | 4.75487 | -1 ft | 4 kts | 86° |
| 2026-04-30 21:32 | 52.31348 | 4.75444 | -1 ft | 4 kts | 86° |
| 2026-04-30 21:32 | 52.31347 | 4.75426 | -1 ft | 0 kts | 86° |
| 2026-04-30 21:34 | 52.31349 | 4.75440 | -1 ft | 4 kts | 73° |
| 2026-04-30 21:34 | 52.31430 | 4.75537 | -1 ft | 11 kts | 80° |
| 2026-04-30 21:34 | 52.31438 | 4.75704 | -1 ft | 19 kts | 85° |
| 2026-04-30 21:35 | 52.31446 | 4.75926 | -1 ft | 20 kts | 88° |
| 2026-04-30 21:35 | 52.31453 | 4.76158 | -1 ft | 21 kts | 86° |
| 2026-04-30 21:35 | 52.31462 | 4.76391 | -1 ft | 21 kts | 86° |
| 2026-04-30 21:35 | 52.31470 | 4.76633 | -1 ft | 22 kts | 87° |
| 2026-04-30 21:36 | 52.31478 | 4.76878 | -1 ft | 22 kts | 86° |
| 2026-04-30 21:36 | 52.31489 | 4.77117 | -1 ft | 21 kts | 78° |
| 2026-04-30 21:37 | 52.31666 | 4.77523 | -2 ft | 19 kts | 57° |
| 2026-04-30 21:37 | 52.31752 | 4.77680 | -2 ft | 20 kts | 22° |
| 2026-04-30 21:37 | 52.31896 | 4.77697 | -1 ft | 21 kts | 4° |
| 2026-04-30 21:37 | 52.32021 | 4.77753 | -1 ft | 11 kts | 39° |
| 2026-04-30 21:38 | 52.32078 | 4.77824 | -1 ft | 7 kts | 38° |
| 2026-04-30 21:38 | 52.32109 | 4.77871 | -1 ft | 7 kts | 50° |
| 2026-04-30 21:38 | 52.32092 | 4.78006 | -1 ft | 17 kts | 152° |
| 2026-04-30 21:38 | 52.31965 | 4.78005 | -1 ft | 30 kts | 183° |
| 2026-04-30 21:39 | 52.31427 | 4.77959 | 0 ft | 123 kts | 183° |
| 2026-04-30 21:39 | 52.30325 | 4.77865 | 103 ft | 183 kts | 182° |
| 2026-04-30 21:39 | 52.29040 | 4.77708 | 1091 ft | 184 kts | 176° |
| 2026-04-30 21:39 | 52.27783 | 4.77592 | 2279 ft | 178 kts | 176° |
| 2026-04-30 21:40 | 52.26573 | 4.78020 | 2849 ft | 188 kts | 146° |
| 2026-04-30 21:40 | 52.25756 | 4.79761 | 3373 ft | 208 kts | 107° |
| 2026-04-30 21:40 | 52.25614 | 4.82171 | 4156 ft | 217 kts | 96° |
| 2026-04-30 21:40 | 52.25557 | 4.84618 | 5068 ft | 220 kts | 96° |
| 2026-04-30 21:41 | 52.25497 | 4.87177 | 5717 ft | 236 kts | 96° |
| 2026-04-30 21:41 | 52.25425 | 4.89974 | 6197 ft | 256 kts | 96° |
| 2026-04-30 21:41 | 52.25350 | 4.92892 | 6305 ft | 257 kts | 95° |
| 2026-04-30 21:41 | 52.25276 | 4.95791 | 6326 ft | 256 kts | 95° |
| 2026-04-30 21:42 | 52.25202 | 4.98698 | 6330 ft | 256 kts | 95° |
| 2026-04-30 21:42 | 52.25124 | 5.01592 | 6327 ft | 255 kts | 96° |
| 2026-04-30 21:42 | 52.25044 | 5.04486 | 6328 ft | 256 kts | 96° |
| 2026-04-30 21:42 | 52.24960 | 5.07387 | 6336 ft | 256 kts | 95° |
| 2026-04-30 21:43 | 52.24873 | 5.10289 | 6331 ft | 256 kts | 96° |
| 2026-04-30 21:43 | 52.24783 | 5.13186 | 6335 ft | 255 kts | 96° |
| 2026-04-30 21:43 | 52.24695 | 5.16077 | 6340 ft | 256 kts | 96° |
| 2026-04-30 21:43 | 52.24608 | 5.18977 | 6339 ft | 256 kts | 96° |
| 2026-04-30 21:44 | 52.24509 | 5.21875 | 6346 ft | 256 kts | 99° |
| 2026-04-30 21:44 | 52.24150 | 5.24759 | 6917 ft | 260 kts | 109° |
| 2026-04-30 21:44 | 52.23489 | 5.27488 | 7920 ft | 259 kts | 118° |
| 2026-04-30 21:44 | 52.22541 | 5.30002 | 8817 ft | 263 kts | 126° |
| 2026-04-30 21:45 | 52.21473 | 5.32457 | 9704 ft | 268 kts | 126° |
| 2026-04-30 21:45 | 52.20385 | 5.34960 | 10539 ft | 273 kts | 125° |
| 2026-04-30 21:45 | 52.19289 | 5.37488 | 11336 ft | 276 kts | 125° |
| 2026-04-30 21:45 | 52.18158 | 5.40091 | 11757 ft | 297 kts | 125° |
| 2026-04-30 21:46 | 52.16923 | 5.42928 | 12140 ft | 315 kts | 125° |
| 2026-04-30 21:46 | 52.15641 | 5.45874 | 12861 ft | 321 kts | 125° |
| 2026-04-30 21:46 | 52.14338 | 5.48862 | 13660 ft | 325 kts | 125° |
| 2026-04-30 21:46 | 52.13021 | 5.51874 | 14424 ft | 329 kts | 125° |
| 2026-04-30 21:47 | 52.11683 | 5.54928 | 15116 ft | 333 kts | 125° |
| 2026-04-30 21:47 | 52.10337 | 5.57999 | 15801 ft | 336 kts | 125° |
| 2026-04-30 21:47 | 52.08970 | 5.61115 | 16500 ft | 339 kts | 125° |
| 2026-04-30 21:47 | 52.07597 | 5.64245 | 17191 ft | 342 kts | 125° |
| 2026-04-30 21:48 | 52.06198 | 5.67407 | 17870 ft | 346 kts | 127° |
| 2026-04-30 21:48 | 52.04633 | 5.70388 | 18552 ft | 349 kts | 130° |
| 2026-04-30 21:48 | 52.03036 | 5.73371 | 19157 ft | 352 kts | 130° |
| 2026-04-30 21:48 | 52.01422 | 5.76386 | 19721 ft | 356 kts | 130° |
| 2026-04-30 21:49 | 51.99785 | 5.79438 | 20291 ft | 360 kts | 130° |
| 2026-04-30 21:49 | 51.98135 | 5.82509 | 20845 ft | 363 kts | 130° |
| 2026-04-30 21:49 | 51.96466 | 5.85615 | 21408 ft | 367 kts | 130° |
| 2026-04-30 21:49 | 51.94776 | 5.88765 | 21969 ft | 371 kts | 130° |
| 2026-04-30 21:50 | 51.93079 | 5.91938 | 22527 ft | 375 kts | 130° |
| 2026-04-30 21:50 | 51.91359 | 5.95151 | 23077 ft | 379 kts | 130° |
| 2026-04-30 21:50 | 51.89618 | 5.98393 | 23619 ft | 383 kts | 130° |
| 2026-04-30 21:50 | 51.87860 | 6.01659 | 24109 ft | 387 kts | 130° |
| 2026-04-30 21:51 | 51.86081 | 6.04964 | 24569 ft | 391 kts | 130° |
| 2026-04-30 21:51 | 51.84287 | 6.08290 | 25000 ft | 394 kts | 130° |
| 2026-04-30 21:51 | 51.82471 | 6.11632 | 25442 ft | 397 kts | 131° |
| 2026-04-30 21:51 | 51.80642 | 6.14985 | 25871 ft | 400 kts | 131° |
| 2026-04-30 21:52 | 51.78797 | 6.18359 | 26286 ft | 402 kts | 130° |
| 2026-04-30 21:52 | 51.76935 | 6.21759 | 26693 ft | 405 kts | 130° |
| 2026-04-30 21:52 | 51.75063 | 6.25179 | 27086 ft | 408 kts | 130° |
| 2026-04-30 21:52 | 51.73175 | 6.28622 | 27316 ft | 410 kts | 130° |
| 2026-04-30 21:53 | 51.71317 | 6.32010 | 27353 ft | 395 kts | 130° |
| 2026-04-30 21:53 | 51.69540 | 6.35243 | 27353 ft | 388 kts | 130° |
| 2026-04-30 21:53 | 51.67755 | 6.38483 | 27358 ft | 385 kts | 130° |
| 2026-04-30 21:53 | 51.65979 | 6.41706 | 27356 ft | 384 kts | 130° |
| 2026-04-30 21:54 | 51.64206 | 6.44923 | 27355 ft | 384 kts | 130° |
| 2026-04-30 21:54 | 51.62432 | 6.48139 | 27361 ft | 384 kts | 130° |
| 2026-04-30 21:54 | 51.60656 | 6.51356 | 27359 ft | 384 kts | 130° |
| 2026-04-30 21:54 | 51.58880 | 6.54569 | 27359 ft | 384 kts | 130° |
| 2026-04-30 21:55 | 51.57103 | 6.57775 | 27360 ft | 385 kts | 130° |
| 2026-04-30 21:55 | 51.55318 | 6.60983 | 27360 ft | 385 kts | 130° |
| 2026-04-30 21:55 | 51.53532 | 6.64187 | 27360 ft | 385 kts | 130° |
| 2026-04-30 21:55 | 51.51745 | 6.67389 | 27358 ft | 385 kts | 130° |
| 2026-04-30 21:56 | 51.49962 | 6.70591 | 27359 ft | 385 kts | 130° |
| 2026-04-30 21:56 | 51.48185 | 6.73780 | 27354 ft | 385 kts | 130° |
| 2026-04-30 21:56 | 51.46395 | 6.76990 | 27351 ft | 385 kts | 130° |
| 2026-04-30 21:56 | 51.44612 | 6.80181 | 27351 ft | 385 kts | 130° |
| 2026-04-30 21:57 | 51.42821 | 6.83376 | 27348 ft | 385 kts | 130° |
| 2026-04-30 21:57 | 51.41033 | 6.86561 | 27347 ft | 385 kts | 130° |
| 2026-04-30 21:57 | 51.39205 | 6.89705 | 27348 ft | 385 kts | 133° |
| 2026-04-30 21:57 | 51.37340 | 6.92700 | 27345 ft | 385 kts | 134° |
| 2026-04-30 21:58 | 51.35411 | 6.95670 | 27344 ft | 386 kts | 135° |
| 2026-04-30 21:58 | 51.33459 | 6.98625 | 27347 ft | 386 kts | 135° |
| 2026-04-30 21:58 | 51.31509 | 7.01572 | 27352 ft | 386 kts | 135° |
| 2026-04-30 21:58 | 51.29564 | 7.04528 | 27353 ft | 386 kts | 134° |
| 2026-04-30 21:59 | 51.27625 | 7.07497 | 27350 ft | 386 kts | 134° |
| 2026-04-30 21:59 | 51.25694 | 7.10473 | 27351 ft | 386 kts | 134° |
| 2026-04-30 21:59 | 51.23762 | 7.13458 | 27354 ft | 386 kts | 134° |
| 2026-04-30 22:00 | 51.19906 | 7.19414 | 27353 ft | 386 kts | 134° |
| 2026-04-30 22:00 | 51.16037 | 7.25367 | 27353 ft | 386 kts | 134° |
| 2026-04-30 22:00 | 51.14106 | 7.28337 | 27353 ft | 387 kts | 134° |
| 2026-04-30 22:01 | 51.12168 | 7.31309 | 27364 ft | 387 kts | 134° |
| 2026-04-30 22:01 | 51.10226 | 7.34274 | 27360 ft | 387 kts | 134° |
| 2026-04-30 22:01 | 51.08282 | 7.37240 | 27362 ft | 387 kts | 134° |
| 2026-04-30 22:01 | 51.06343 | 7.40198 | 27361 ft | 387 kts | 134° |
| 2026-04-30 22:02 | 51.04400 | 7.43162 | 27362 ft | 387 kts | 134° |
| 2026-04-30 22:02 | 51.02479 | 7.46087 | 27363 ft | 387 kts | 134° |
| 2026-04-30 22:02 | 51.00533 | 7.49044 | 27364 ft | 387 kts | 134° |
| 2026-04-30 22:02 | 50.98585 | 7.52001 | 27362 ft | 387 kts | 134° |
| 2026-04-30 22:03 | 50.96640 | 7.54950 | 27365 ft | 388 kts | 134° |
| 2026-04-30 22:03 | 50.94691 | 7.57904 | 27367 ft | 387 kts | 134° |
| 2026-04-30 22:03 | 50.92744 | 7.60854 | 27370 ft | 388 kts | 134° |
| 2026-04-30 22:03 | 50.90793 | 7.63803 | 27372 ft | 388 kts | 134° |
| 2026-04-30 22:04 | 50.88837 | 7.66753 | 27379 ft | 388 kts | 134° |
| 2026-04-30 22:04 | 50.86886 | 7.69692 | 27377 ft | 388 kts | 134° |
| 2026-04-30 22:04 | 50.82976 | 7.75577 | 27376 ft | 388 kts | 134° |
| 2026-04-30 22:05 | 50.81019 | 7.78513 | 27380 ft | 388 kts | 134° |
| 2026-04-30 22:05 | 50.79057 | 7.81438 | 27376 ft | 388 kts | 134° |
| 2026-04-30 22:05 | 50.77095 | 7.84359 | 27376 ft | 388 kts | 134° |
| 2026-04-30 22:05 | 50.75131 | 7.87278 | 27377 ft | 388 kts | 134° |
| 2026-04-30 22:06 | 50.73165 | 7.90197 | 27378 ft | 388 kts | 134° |
| 2026-04-30 22:06 | 50.69325 | 7.95876 | 27378 ft | 388 kts | 134° |
| 2026-04-30 22:06 | 50.67359 | 7.98779 | 27377 ft | 388 kts | 134° |
| 2026-04-30 22:07 | 50.65393 | 8.01684 | 27382 ft | 388 kts | 134° |
| 2026-04-30 22:07 | 50.63426 | 8.04589 | 27379 ft | 388 kts | 134° |
| 2026-04-30 22:07 | 50.61458 | 8.07497 | 27380 ft | 388 kts | 134° |
| 2026-04-30 22:07 | 50.59365 | 8.10195 | 27379 ft | 391 kts | 143° |
| 2026-04-30 22:08 | 50.57084 | 8.12509 | 27380 ft | 391 kts | 144° |
| 2026-04-30 22:08 | 50.54789 | 8.14815 | 27378 ft | 391 kts | 144° |
| 2026-04-30 22:08 | 50.52488 | 8.17123 | 27379 ft | 392 kts | 144° |
| 2026-04-30 22:08 | 50.50192 | 8.19424 | 27379 ft | 392 kts | 144° |
| 2026-04-30 22:09 | 50.47899 | 8.21722 | 27382 ft | 391 kts | 143° |
| 2026-04-30 22:09 | 50.45603 | 8.24022 | 27385 ft | 392 kts | 143° |
| 2026-04-30 22:09 | 50.43303 | 8.26326 | 27381 ft | 392 kts | 143° |
| 2026-04-30 22:09 | 50.41010 | 8.28625 | 27382 ft | 392 kts | 143° |
| 2026-04-30 22:10 | 50.38718 | 8.30917 | 27384 ft | 392 kts | 143° |
| 2026-04-30 22:10 | 50.36415 | 8.33214 | 27380 ft | 392 kts | 143° |
| 2026-04-30 22:10 | 50.34118 | 8.35500 | 27377 ft | 392 kts | 143° |
| 2026-04-30 22:10 | 50.31816 | 8.37789 | 27374 ft | 392 kts | 143° |
| 2026-04-30 22:11 | 50.27598 | 8.43025 | 27376 ft | 384 kts | 128° |
| 2026-04-30 22:11 | 50.25799 | 8.46101 | 27376 ft | 385 kts | 128° |
| 2026-04-30 22:11 | 50.23984 | 8.49191 | 27373 ft | 385 kts | 128° |
| 2026-04-30 22:12 | 50.22172 | 8.52262 | 27378 ft | 385 kts | 128° |
| 2026-04-30 22:12 | 50.20352 | 8.55330 | 27380 ft | 385 kts | 129° |
| 2026-04-30 22:12 | 50.18533 | 8.58388 | 27374 ft | 385 kts | 129° |
| 2026-04-30 22:12 | 50.16732 | 8.61417 | 27376 ft | 385 kts | 128° |
| 2026-04-30 22:13 | 50.14916 | 8.64479 | 27381 ft | 385 kts | 128° |
| 2026-04-30 22:13 | 50.13071 | 8.67587 | 27371 ft | 385 kts | 128° |
| 2026-04-30 22:13 | 50.11279 | 8.70608 | 27371 ft | 385 kts | 128° |
| 2026-04-30 22:13 | 50.09458 | 8.73667 | 27375 ft | 385 kts | 128° |
| 2026-04-30 22:14 | 50.07632 | 8.76725 | 27379 ft | 385 kts | 128° |
| 2026-04-30 22:14 | 50.05804 | 8.79779 | 27385 ft | 385 kts | 129° |
| 2026-04-30 22:14 | 50.03914 | 8.82737 | 27371 ft | 387 kts | 131° |
| 2026-04-30 22:14 | 50.01942 | 8.85597 | 27367 ft | 388 kts | 133° |
| 2026-04-30 22:15 | 49.99931 | 8.88388 | 27369 ft | 388 kts | 134° |
| 2026-04-30 22:15 | 49.97897 | 8.91166 | 27369 ft | 388 kts | 134° |
| 2026-04-30 22:15 | 49.95876 | 8.93932 | 27368 ft | 388 kts | 134° |
| 2026-04-30 22:15 | 49.93858 | 8.96724 | 27362 ft | 388 kts | 133° |
| 2026-04-30 22:16 | 49.91852 | 8.99527 | 27366 ft | 388 kts | 133° |
| 2026-04-30 22:16 | 49.89856 | 9.02332 | 27368 ft | 388 kts | 133° |
| 2026-04-30 22:17 | 49.83865 | 9.10758 | 27362 ft | 387 kts | 133° |
| 2026-04-30 22:17 | 49.81873 | 9.13556 | 27366 ft | 387 kts | 133° |
| 2026-04-30 22:17 | 49.77876 | 9.19147 | 27364 ft | 387 kts | 133° |
| 2026-04-30 22:18 | 49.75878 | 9.21934 | 27366 ft | 387 kts | 133° |
| 2026-04-30 22:18 | 49.71878 | 9.27505 | 27363 ft | 387 kts | 133° |
| 2026-04-30 22:19 | 49.67880 | 9.33068 | 27368 ft | 387 kts | 132° |
| 2026-04-30 22:19 | 49.65872 | 9.35852 | 27367 ft | 387 kts | 133° |
| 2026-04-30 22:19 | 49.61883 | 9.41417 | 27365 ft | 385 kts | 129° |
| 2026-04-30 22:20 | 49.60101 | 9.44475 | 27368 ft | 382 kts | 126° |
| 2026-04-30 22:20 | 49.56605 | 9.50647 | 27365 ft | 382 kts | 126° |
| 2026-04-30 22:20 | 49.54874 | 9.53685 | 27366 ft | 382 kts | 126° |
| 2026-04-30 22:21 | 49.53115 | 9.56762 | 27370 ft | 382 kts | 126° |
| 2026-04-30 22:21 | 49.51359 | 9.59830 | 27373 ft | 382 kts | 126° |
| 2026-04-30 22:21 | 49.49603 | 9.62898 | 27372 ft | 382 kts | 126° |
| 2026-04-30 22:21 | 49.47857 | 9.65944 | 27372 ft | 382 kts | 126° |
| 2026-04-30 22:22 | 49.46099 | 9.69010 | 27377 ft | 382 kts | 126° |
| 2026-04-30 22:22 | 49.44339 | 9.72077 | 27378 ft | 382 kts | 126° |
| 2026-04-30 22:22 | 49.42583 | 9.75137 | 27377 ft | 382 kts | 126° |
| 2026-04-30 22:22 | 49.40822 | 9.78200 | 27381 ft | 382 kts | 126° |
| 2026-04-30 22:23 | 49.39061 | 9.81256 | 27382 ft | 382 kts | 126° |
| 2026-04-30 22:23 | 49.37295 | 9.84311 | 27381 ft | 382 kts | 126° |
| 2026-04-30 22:23 | 49.35529 | 9.87357 | 27378 ft | 382 kts | 126° |
| 2026-04-30 22:23 | 49.33766 | 9.90395 | 27377 ft | 382 kts | 126° |
| 2026-04-30 22:24 | 49.31997 | 9.93447 | 27375 ft | 382 kts | 126° |
| 2026-04-30 22:24 | 49.30232 | 9.96495 | 27368 ft | 382 kts | 126° |
| 2026-04-30 22:24 | 49.28465 | 9.99546 | 27373 ft | 382 kts | 126° |
| 2026-04-30 22:24 | 49.26697 | 10.02590 | 27377 ft | 382 kts | 126° |
| 2026-04-30 22:25 | 49.24927 | 10.05627 | 27377 ft | 382 kts | 126° |
| 2026-04-30 22:25 | 49.23179 | 10.08620 | 27382 ft | 383 kts | 126° |
| 2026-04-30 22:25 | 49.21405 | 10.11649 | 27379 ft | 383 kts | 126° |
| 2026-04-30 22:25 | 49.19615 | 10.14706 | 27388 ft | 392 kts | 126° |
| 2026-04-30 22:26 | 49.15931 | 10.21060 | 26932 ft | 395 kts | 126° |
| 2026-04-30 22:26 | 49.14082 | 10.24161 | 25863 ft | 394 kts | 127° |
| 2026-04-30 22:26 | 49.12219 | 10.27210 | 25110 ft | 391 kts | 127° |
| 2026-04-30 22:27 | 49.10342 | 10.30227 | 24646 ft | 392 kts | 128° |
| 2026-04-30 22:27 | 49.09096 | 10.32216 | 24320 ft | 391 kts | 128° |
| 2026-04-30 22:27 | 49.05349 | 10.38186 | 23263 ft | 388 kts | 128° |
| 2026-04-30 22:28 | 49.01656 | 10.44071 | 22310 ft | 382 kts | 128° |
| 2026-04-30 22:28 | 48.99825 | 10.46990 | 21842 ft | 380 kts | 128° |
| 2026-04-30 22:29 | 48.94374 | 10.55662 | 20487 ft | 375 kts | 128° |
| 2026-04-30 22:29 | 48.92575 | 10.58525 | 20043 ft | 374 kts | 128° |
| 2026-04-30 22:30 | 48.85439 | 10.69822 | 18275 ft | 367 kts | 129° |
| 2026-04-30 22:31 | 48.80194 | 10.78097 | 16857 ft | 358 kts | 129° |
| 2026-04-30 22:32 | 48.75098 | 10.86120 | 15252 ft | 348 kts | 130° |
| 2026-04-30 22:32 | 48.71743 | 10.91389 | 14391 ft | 346 kts | 130° |
| 2026-04-30 22:33 | 48.66777 | 10.99159 | 13096 ft | 338 kts | 130° |
| 2026-04-30 22:33 | 48.63541 | 11.04209 | 12245 ft | 331 kts | 130° |
| 2026-04-30 22:34 | 48.58778 | 11.11630 | 10958 ft | 324 kts | 131° |
| 2026-04-30 22:35 | 48.55715 | 11.16389 | 10569 ft | 305 kts | 131° |
| 2026-04-30 22:36 | 48.50189 | 11.24937 | 8720 ft | 274 kts | 131° |
| 2026-04-30 22:36 | 48.48868 | 11.26982 | 8126 ft | 270 kts | 132° |
| 2026-04-30 22:37 | 48.45285 | 11.32508 | 7308 ft | 234 kts | 132° |
| 2026-04-30 22:37 | 48.44178 | 11.34215 | 7120 ft | 221 kts | 132° |
| 2026-04-30 22:37 | 48.42126 | 11.37380 | 6662 ft | 206 kts | 133° |
| 2026-04-30 22:38 | 48.40178 | 11.40382 | 6026 ft | 188 kts | 132° |
| 2026-04-30 22:38 | 48.38385 | 11.43130 | 5818 ft | 182 kts | 131° |
| 2026-04-30 22:39 | 48.37502 | 11.44489 | 5529 ft | 181 kts | 132° |
| 2026-04-30 22:39 | 48.34945 | 11.48480 | 5142 ft | 173 kts | 123° |
| 2026-04-30 22:40 | 48.34455 | 11.53541 | 4672 ft | 156 kts | 86° |
| 2026-04-30 22:41 | 48.34791 | 11.57802 | 4078 ft | 120 kts | 86° |
| 2026-04-30 22:41 | 48.34983 | 11.60233 | 3780 ft | 115 kts | 84° |
| 2026-04-30 22:42 | 48.35340 | 11.64787 | 3176 ft | 109 kts | 87° |
| 2026-04-30 22:43 | 48.35516 | 11.67022 | 2884 ft | 107 kts | 83° |
| 2026-04-30 22:43 | 48.35692 | 11.69266 | 2577 ft | 112 kts | 84° |
| 2026-04-30 22:44 | 48.35884 | 11.71714 | 2197 ft | 124 kts | 82° |
| 2026-04-30 22:45 | 48.36304 | 11.77061 | 1519 ft | 131 kts | 82° |
| 2026-04-30 22:45 | 48.36456 | 11.79060 | 1485 ft | 61 kts | 88° |
| 2026-04-30 22:46 | 48.36350 | 11.79625 | 1477 ft | 0 kts | 115° |
| 2026-04-30 22:47 | 48.36346 | 11.79636 | 1481 ft | 3 kts | 116° |
| 2026-04-30 22:47 | 48.36245 | 11.79742 | 1475 ft | 15 kts | 238° |
| 2026-04-30 22:48 | 48.36208 | 11.79412 | 1485 ft | 13 kts | 263° |
| 2026-04-30 22:49 | 48.36177 | 11.79021 | 1474 ft | 13 kts | 263° |
| 2026-04-30 22:49 | 48.36139 | 11.78532 | 1479 ft | 22 kts | 264° |
| 2026-04-30 22:50 | 48.35963 | 11.77679 | 1482 ft | 20 kts | 172° |
| 2026-04-30 22:51 | 48.35631 | 11.77740 | 1485 ft | 28 kts | 176° |
| 2026-04-30 22:51 | 48.35398 | 11.77783 | 1476 ft | 4 kts | 171° |
| 2026-04-30 22:52 | 48.35366 | 11.77791 | 1480 ft | 6 kts | 161° |
| 2026-04-30 22:52 | 48.35343 | 11.77978 | 1485 ft | 11 kts | 83° |
| 2026-04-30 22:53 | 48.35370 | 11.78250 | 1482 ft | 15 kts | 83° |
| 2026-04-30 22:53 | 48.35375 | 11.78314 | 1476 ft | 0 kts | 83° |